createdAt,value
2022-10-23T00:01:42.885Z,12.28
2022-10-23T00:04:45.640Z,12.26
2022-10-23T00:07:59.811Z,12.26
2022-10-23T00:11:10.502Z,12.23
2022-10-23T00:14:14.397Z,12.19
2022-10-23T00:17:17.082Z,12.21
2022-10-23T00:20:19.911Z,12.22
2022-10-23T00:23:23.160Z,12.19
2022-10-23T00:26:25.851Z,12.12
2022-10-23T00:29:29.171Z,12.10
2022-10-23T00:35:40.751Z,12.04
2022-10-23T00:38:43.820Z,12.00
2022-10-23T00:41:46.494Z,11.96
2022-10-23T00:44:49.020Z,11.97
2022-10-23T00:47:51.778Z,11.98
2022-10-23T00:50:54.996Z,11.93
2022-10-23T00:54:12.649Z,11.93
2022-10-23T00:57:22.492Z,11.92
2022-10-23T01:00:44.115Z,11.91
2022-10-23T01:03:47.203Z,11.90
2022-10-23T01:07:20.387Z,11.86
2022-10-23T01:10:28.852Z,11.87
2022-10-23T01:13:46.427Z,11.82
2022-10-23T01:17:03.002Z,11.77
2022-10-23T01:20:23.729Z,11.79
2022-10-23T01:23:34.726Z,11.79
2022-10-23T01:26:49.696Z,11.63
2022-10-23T01:30:07.869Z,11.61
2022-10-23T01:33:17.938Z,11.64
2022-10-23T01:36:26.968Z,11.64
2022-10-23T01:39:46.862Z,11.70
2022-10-23T01:42:57.122Z,11.67
2022-10-23T01:46:05.847Z,11.79
2022-10-23T01:49:14.581Z,11.77
2022-10-23T01:52:18.839Z,11.75
2022-10-23T01:55:24.637Z,11.75
2022-10-23T01:58:30.097Z,11.77
2022-10-23T02:01:36.568Z,11.79
2022-10-23T02:05:06.581Z,11.75
2022-10-23T02:08:09.696Z,11.70
2022-10-23T02:11:20.354Z,11.67
2022-10-23T02:14:37.908Z,11.63
2022-10-23T02:17:55.315Z,11.62
2022-10-23T02:21:05.705Z,11.59
2022-10-23T02:24:18.108Z,11.58
2022-10-23T02:27:30.511Z,11.57
2022-10-23T02:30:37.902Z,11.53
2022-10-23T02:33:41.335Z,11.50
2022-10-23T02:36:44.014Z,11.50
2022-10-23T02:39:48.309Z,11.47
2022-10-23T02:43:08.972Z,11.46
2022-10-23T02:46:25.023Z,11.54
2022-10-23T02:49:46.563Z,11.68
2022-10-23T02:52:55.519Z,11.46
2022-10-23T02:56:08.079Z,11.42
2022-10-23T02:59:12.224Z,11.44
2022-10-23T03:02:25.519Z,11.48
2022-10-23T03:05:33.022Z,11.54
2022-10-23T03:08:50.374Z,11.67
2022-10-23T03:11:54.221Z,11.66
2022-10-23T03:14:56.934Z,11.56
2022-10-23T03:18:00.912Z,11.45
2022-10-23T03:21:04.331Z,11.42
2022-10-23T03:24:11.419Z,11.44
2022-10-23T03:27:15.120Z,11.43
2022-10-23T03:30:18.072Z,11.44
2022-10-23T03:33:23.808Z,11.56
2022-10-23T03:36:26.402Z,11.46
2022-10-23T03:39:29.400Z,11.43
2022-10-23T03:42:32.436Z,11.44
2022-10-23T03:45:38.347Z,11.42
2022-10-23T03:48:42.102Z,11.38
2022-10-23T03:51:52.021Z,11.38
2022-10-23T03:54:56.240Z,11.35
2022-10-23T03:57:58.976Z,11.32
2022-10-23T04:01:01.698Z,11.30
2022-10-23T04:04:04.526Z,11.30
2022-10-23T04:07:07.267Z,11.32
2022-10-23T04:10:10.296Z,11.29
2022-10-23T04:13:13.053Z,11.23
2022-10-23T04:16:15.901Z,11.19
2022-10-23T04:19:20.076Z,11.16
2022-10-23T04:22:25.931Z,11.15
2022-10-23T04:25:30.320Z,11.17
2022-10-23T04:28:33.117Z,11.18
2022-10-23T04:31:35.837Z,11.18
2022-10-23T04:34:38.582Z,11.13
2022-10-23T04:37:41.860Z,11.10
2022-10-23T04:40:45.087Z,11.07
2022-10-23T04:43:51.284Z,11.03
2022-10-23T04:46:54.088Z,11.00
2022-10-23T04:49:59.081Z,11.00
2022-10-23T04:53:10.361Z,11.02
2022-10-23T04:56:15.094Z,11.00
2022-10-23T04:59:19.308Z,11.03
2022-10-23T05:02:22.093Z,11.14
2022-10-23T05:05:24.922Z,11.34
2022-10-23T05:08:28.554Z,11.23
2022-10-23T05:11:33.737Z,11.08
2022-10-23T05:14:39.624Z,11.12
2022-10-23T05:17:46.596Z,11.31
2022-10-23T05:20:51.874Z,11.15
2022-10-23T05:23:54.921Z,11.21
2022-10-23T05:26:57.933Z,11.17
2022-10-23T05:30:00.659Z,11.12
2022-10-23T05:33:04.461Z,11.24
2022-10-23T05:36:13.787Z,11.36
2022-10-23T05:39:17.099Z,11.23
2022-10-23T05:42:20.791Z,11.15
2022-10-23T05:45:23.743Z,10.99
2022-10-23T05:48:34.595Z,10.94
2022-10-23T05:51:40.029Z,11.11
2022-10-23T05:54:42.947Z,11.13
2022-10-23T05:57:48.180Z,11.04
2022-10-23T06:00:51.137Z,11.10
2022-10-23T06:03:56.128Z,11.07
2022-10-23T06:06:59.673Z,11.13
2022-10-23T06:10:03.799Z,11.15
2022-10-23T06:13:07.097Z,11.14
2022-10-23T06:16:10.317Z,11.26
2022-10-23T06:19:13.604Z,11.34
2022-10-23T06:22:16.929Z,11.42
2022-10-23T06:25:20.766Z,11.50
2022-10-23T06:28:27.056Z,11.65
2022-10-23T06:31:29.814Z,11.72
2022-10-23T06:34:32.830Z,11.85
2022-10-23T06:37:35.288Z,12.00
2022-10-23T06:40:39.950Z,12.18
2022-10-23T06:43:42.878Z,12.35
2022-10-23T06:46:49.843Z,12.47
2022-10-23T06:49:53.799Z,12.55
2022-10-23T06:52:57.151Z,12.67
2022-10-23T06:56:01.150Z,12.86
2022-10-23T06:59:07.960Z,13.11
2022-10-23T07:02:11.499Z,13.42
2022-10-23T07:05:14.525Z,13.50
2022-10-23T07:08:17.807Z,13.32
2022-10-23T07:11:21.600Z,13.23
2022-10-23T07:14:24.376Z,13.15
2022-10-23T07:17:29.176Z,13.22
2022-10-23T07:20:31.625Z,13.32
2022-10-23T07:23:35.484Z,13.66
2022-10-23T07:26:41.467Z,13.78
2022-10-23T07:29:46.009Z,15.01
2022-10-23T07:32:49.915Z,18.09
2022-10-23T07:35:55.255Z,20.13
2022-10-23T07:38:58.696Z,21.73
2022-10-23T07:42:01.609Z,22.88
2022-10-23T07:45:07.494Z,25.28
2022-10-23T07:48:11.463Z,27.33
2022-10-23T07:51:16.295Z,28.63
2022-10-23T07:54:19.598Z,27.59
2022-10-23T07:57:24.648Z,27.07
2022-10-23T08:00:29.679Z,27.16
2022-10-23T08:03:33.903Z,26.95
2022-10-23T08:06:38.372Z,26.91
2022-10-23T08:09:41.780Z,27.57
2022-10-23T08:12:45.311Z,28.40
2022-10-23T08:15:50.516Z,29.87
2022-10-23T08:18:55.849Z,32.38
2022-10-23T08:21:58.706Z,35.21
2022-10-23T08:25:01.433Z,38.02
2022-10-23T08:28:06.270Z,40.25
2022-10-23T08:31:15.946Z,41.69
2022-10-23T08:34:21.193Z,42.80
2022-10-23T08:37:24.991Z,43.74
2022-10-23T08:40:27.889Z,44.64
2022-10-23T08:43:46.902Z,45.63
2022-10-23T08:47:10.559Z,45.94
2022-10-23T08:53:40.212Z,46.25
2022-10-23T08:56:48.243Z,46.53
2022-10-23T09:00:14.100Z,46.55
2022-10-23T09:03:18.344Z,46.55
2022-10-23T09:06:27.047Z,46.38
2022-10-23T09:09:59.739Z,46.51
2022-10-23T09:13:21.009Z,46.01
2022-10-23T09:16:26.509Z,45.06
2022-10-23T09:19:31.320Z,43.67
2022-10-23T09:22:34.505Z,43.08
2022-10-23T09:25:39.384Z,42.85
2022-10-23T09:29:03.097Z,40.96
2022-10-23T09:32:07.169Z,38.55
2022-10-23T09:35:22.314Z,36.32
2022-10-23T09:38:39.725Z,34.25
2022-10-23T09:41:43.266Z,32.78
2022-10-23T09:44:50.942Z,30.20
2022-10-23T09:48:10.476Z,28.91
2022-10-23T09:51:19.640Z,28.16
2022-10-23T09:54:24.171Z,27.16
2022-10-23T09:57:38.183Z,26.80
2022-10-23T10:00:49.190Z,27.08
2022-10-23T10:03:53.965Z,27.23
2022-10-23T10:06:58.336Z,27.23
2022-10-23T10:10:01.369Z,27.15
2022-10-23T10:13:33.675Z,27.06
2022-10-23T10:16:54.016Z,26.88
2022-10-23T10:20:18.935Z,26.15
2022-10-23T10:23:27.532Z,25.96
2022-10-23T10:26:56.240Z,26.14
2022-10-23T10:30:13.940Z,26.30
2022-10-23T10:33:46.900Z,26.21
2022-10-23T10:36:56.021Z,25.70
2022-10-23T10:40:23.014Z,24.25
2022-10-23T10:43:50.983Z,24.24
2022-10-23T10:47:21.178Z,23.43
2022-10-23T10:50:43.883Z,23.82
2022-10-23T10:54:07.342Z,24.30
2022-10-23T10:57:24.405Z,23.94
2022-10-23T11:00:29.909Z,23.08
2022-10-23T11:03:45.895Z,22.78
2022-10-23T11:06:51.833Z,23.27
2022-10-23T11:09:58.932Z,23.77
2022-10-23T11:13:02.717Z,24.28
2022-10-23T11:16:35.990Z,24.55
2022-10-23T11:19:50.324Z,24.72
2022-10-23T11:23:04.447Z,24.44
2022-10-23T11:26:23.203Z,24.21
2022-10-23T11:29:45.672Z,24.31
2022-10-23T11:33:10.187Z,24.05
2022-10-23T11:36:32.606Z,24.51
2022-10-23T11:39:39.265Z,24.54
2022-10-23T11:42:43.076Z,24.70
2022-10-23T11:45:45.943Z,24.43
2022-10-23T11:48:49.817Z,24.54
2022-10-23T11:52:05.371Z,23.98
2022-10-23T11:55:21.014Z,23.88
2022-10-23T11:58:32.015Z,22.93
2022-10-23T12:01:45.682Z,22.71
2022-10-23T12:04:52.424Z,22.30
2022-10-23T12:07:58.001Z,21.69
2022-10-23T12:11:01.197Z,21.88
2022-10-23T12:14:03.794Z,22.15
2022-10-23T12:17:37.704Z,22.37
2022-10-23T12:20:46.108Z,22.39
2022-10-23T12:23:54.813Z,22.50
2022-10-23T12:27:13.624Z,22.29
2022-10-23T12:30:29.006Z,22.19
2022-10-23T12:34:13.207Z,21.81
2022-10-23T12:37:18.978Z,21.79
2022-10-23T12:40:22.519Z,21.79
2022-10-23T12:43:37.180Z,22.14
2022-10-23T12:46:43.476Z,22.61
2022-10-23T12:49:50.410Z,22.18
2022-10-23T12:53:03.115Z,20.99
2022-10-23T12:56:06.670Z,19.92
2022-10-23T12:59:14.627Z,19.31
2022-10-23T13:02:21.965Z,19.58
2022-10-23T13:05:25.636Z,19.67
2022-10-23T13:08:41.815Z,19.51
2022-10-23T13:11:46.481Z,19.09
2022-10-23T13:15:21.201Z,18.88
2022-10-23T13:18:23.761Z,18.97
2022-10-23T13:21:28.610Z,19.14
2022-10-23T13:24:31.825Z,19.18
2022-10-23T13:27:34.971Z,19.09
2022-10-23T13:30:40.441Z,18.91
2022-10-23T13:33:46.137Z,18.81
2022-10-23T13:37:01.131Z,18.65
2022-10-23T13:40:10.139Z,18.58
2022-10-23T13:43:18.919Z,18.47
2022-10-23T13:46:25.602Z,18.44
2022-10-23T13:49:28.008Z,18.44
2022-10-23T13:52:31.076Z,18.25
2022-10-23T13:55:34.115Z,18.06
2022-10-23T13:58:37.166Z,17.89
2022-10-23T14:01:40.367Z,17.78
2022-10-23T14:04:43.431Z,17.58
2022-10-23T14:07:46.134Z,17.58
2022-10-23T14:10:49.636Z,17.57
2022-10-23T14:13:52.819Z,17.46
2022-10-23T14:16:55.663Z,17.43
2022-10-23T14:19:58.143Z,17.52
2022-10-23T14:23:01.012Z,17.44
2022-10-23T14:26:15.348Z,17.44
2022-10-23T14:29:23.096Z,17.60
2022-10-23T14:32:26.698Z,17.61
2022-10-23T14:35:29.625Z,17.43
2022-10-23T14:38:32.117Z,17.34
2022-10-23T14:41:35.132Z,17.22
2022-10-23T14:47:41.754Z,17.26
2022-10-23T14:50:46.772Z,17.20
2022-10-23T14:53:58.774Z,17.00
2022-10-23T14:57:01.661Z,17.03
2022-10-23T15:00:06.482Z,17.03
2022-10-23T15:03:09.229Z,17.02
2022-10-23T15:06:16.097Z,17.06
2022-10-23T15:09:20.924Z,17.04
2022-10-23T15:12:24.581Z,17.16
2022-10-23T15:15:26.956Z,17.13
2022-10-23T15:18:30.005Z,17.14
2022-10-23T15:21:32.465Z,17.18
2022-10-23T15:24:35.794Z,17.20
2022-10-23T15:27:38.275Z,17.26
2022-10-23T15:30:43.427Z,17.27
2022-10-23T15:33:45.861Z,17.29
2022-10-23T15:36:49.315Z,17.30
2022-10-23T15:39:51.795Z,17.29
2022-10-23T15:42:54.620Z,17.28
2022-10-23T15:45:57.244Z,17.24
2022-10-23T15:49:00.277Z,17.25
2022-10-23T15:52:04.853Z,17.25
2022-10-23T15:55:11.665Z,17.24
2022-10-23T15:58:14.139Z,17.23
2022-10-23T16:01:17.847Z,17.25
2022-10-23T16:04:21.135Z,17.21
2022-10-23T16:07:23.948Z,17.21
2022-10-23T16:10:28.407Z,17.20
2022-10-23T16:13:30.899Z,17.21
2022-10-23T16:16:33.889Z,17.21
2022-10-23T16:19:36.527Z,17.21
2022-10-23T16:22:41.427Z,17.21
2022-10-23T16:25:46.981Z,17.25
2022-10-23T16:28:54.307Z,17.26
2022-10-23T16:31:58.387Z,17.27
2022-10-23T16:35:01.348Z,17.31
2022-10-23T16:38:10.062Z,17.28
2022-10-23T16:41:12.788Z,17.21
2022-10-23T16:44:16.064Z,17.39
2022-10-23T16:47:20.689Z,17.22
2022-10-23T16:50:23.544Z,17.27
2022-10-23T16:53:29.046Z,17.09
2022-10-23T16:56:32.258Z,17.09
2022-10-23T16:59:37.006Z,17.13
2022-10-23T17:02:39.744Z,17.03
2022-10-23T17:05:42.485Z,17.09
2022-10-23T17:08:46.191Z,17.03
2022-10-23T17:11:51.119Z,16.98
2022-10-23T17:14:54.070Z,17.07
2022-10-23T17:17:57.990Z,17.03
2022-10-23T17:21:01.140Z,17.00
2022-10-23T17:24:05.075Z,16.95
2022-10-23T17:27:08.039Z,16.83
2022-10-23T17:30:12.793Z,16.88
2022-10-23T17:33:16.115Z,16.81
2022-10-23T17:36:21.605Z,16.79
2022-10-23T17:39:28.075Z,16.81
2022-10-23T17:42:31.889Z,16.73
2022-10-23T17:45:35.728Z,16.83
2022-10-23T17:48:39.603Z,16.76
2022-10-23T17:51:42.258Z,16.74
2022-10-23T17:54:45.276Z,16.66
2022-10-23T17:57:48.977Z,16.64
2022-10-23T18:00:52.781Z,16.62
2022-10-23T18:04:01.081Z,16.66
2022-10-23T18:07:04.119Z,16.68
2022-10-23T18:10:08.431Z,16.66
2022-10-23T18:13:11.357Z,16.70
2022-10-23T18:16:15.571Z,16.61
2022-10-23T18:19:18.595Z,16.62
2022-10-23T18:22:21.996Z,16.64
2022-10-23T18:25:24.476Z,16.71
2022-10-23T18:28:29.298Z,16.67
2022-10-23T18:31:31.781Z,16.74
2022-10-23T18:34:34.779Z,16.63
2022-10-23T18:37:41.627Z,16.70
2022-10-23T18:40:44.836Z,16.64
2022-10-23T18:43:48.129Z,16.61
2022-10-23T18:46:51.750Z,16.63
2022-10-23T18:49:54.551Z,16.71
2022-10-23T18:52:57.652Z,16.63
2022-10-23T18:56:01.296Z,16.57
2022-10-23T18:59:07.483Z,16.61
2022-10-23T19:02:12.028Z,16.64
2022-10-23T19:05:15.028Z,16.57
2022-10-23T19:08:17.508Z,16.52
2022-10-23T19:11:22.964Z,16.54
2022-10-23T19:14:27.766Z,16.44
2022-10-23T19:17:32.718Z,16.43
2022-10-23T19:20:36.209Z,16.44
2022-10-23T19:23:42.176Z,16.47
2022-10-23T19:26:44.970Z,16.42
2022-10-23T19:29:51.792Z,16.42
2022-10-23T19:32:54.776Z,16.36
2022-10-23T19:36:00.235Z,16.39
2022-10-23T19:39:04.837Z,16.41
2022-10-23T19:42:09.012Z,16.43
2022-10-23T19:45:14.440Z,16.47
2022-10-23T19:48:17.439Z,16.49
2022-10-23T19:51:19.980Z,16.54
2022-10-23T19:54:23.499Z,16.56
2022-10-23T19:57:25.975Z,16.56
2022-10-23T20:00:30.330Z,16.56
2022-10-23T20:03:33.020Z,16.57
2022-10-23T20:06:36.469Z,16.57
2022-10-23T20:09:39.499Z,16.61
2022-10-23T20:12:47.489Z,16.60
2022-10-23T20:16:00.037Z,16.59
2022-10-23T20:19:07.028Z,16.57
2022-10-23T20:22:10.672Z,16.59
2022-10-23T20:25:13.604Z,16.59
2022-10-23T20:28:16.359Z,16.58
2022-10-23T20:31:21.546Z,16.63
2022-10-23T20:34:25.339Z,16.58
2022-10-23T20:37:28.041Z,16.62
2022-10-23T20:40:30.788Z,16.56
2022-10-23T20:43:36.482Z,16.57
2022-10-23T20:46:39.327Z,16.51
2022-10-23T20:49:41.955Z,16.52
2022-10-23T20:52:45.009Z,16.51
2022-10-23T20:55:47.625Z,16.48
2022-10-23T20:58:50.608Z,16.46
2022-10-23T21:01:54.044Z,16.45
2022-10-23T21:04:56.875Z,16.43
2022-10-23T21:07:59.625Z,16.43
2022-10-23T21:11:02.429Z,16.41
2022-10-23T21:14:05.701Z,16.46
2022-10-23T21:17:10.651Z,16.43
2022-10-23T21:20:13.704Z,16.39
2022-10-23T21:23:16.491Z,16.35
2022-10-23T21:26:21.681Z,16.37
2022-10-23T21:29:24.527Z,16.35
2022-10-23T21:32:27.149Z,16.32
2022-10-23T21:35:30.500Z,16.33
2022-10-23T21:38:35.740Z,16.33
2022-10-23T21:41:38.843Z,16.28
2022-10-23T21:44:41.461Z,16.32
2022-10-23T21:47:44.246Z,16.19
2022-10-23T21:50:47.173Z,16.22
2022-10-23T21:53:51.796Z,16.28
2022-10-23T21:59:57.632Z,16.24
2022-10-23T22:03:00.267Z,16.22
2022-10-23T22:06:02.953Z,16.25
2022-10-23T22:09:06.875Z,16.27
2022-10-23T22:12:11.554Z,16.26
2022-10-23T22:15:14.272Z,16.29
2022-10-23T22:18:17.473Z,16.29
2022-10-23T22:21:23.531Z,16.28
2022-10-23T22:24:26.321Z,16.25
2022-10-23T22:27:29.014Z,16.25
2022-10-23T22:30:36.330Z,16.25
2022-10-23T22:33:38.983Z,16.25
2022-10-23T22:36:41.735Z,16.25
2022-10-23T22:39:44.376Z,16.26
2022-10-23T22:42:47.262Z,16.27
2022-10-23T22:45:50.144Z,16.25
2022-10-23T22:48:54.460Z,16.20
2022-10-23T22:51:57.188Z,16.15
2022-10-23T22:54:59.878Z,16.16
2022-10-23T22:58:02.606Z,16.14
2022-10-23T23:01:10.400Z,16.12
2022-10-23T23:04:37.728Z,16.14
2022-10-23T23:07:40.773Z,16.12
2022-10-23T23:10:43.382Z,16.08
2022-10-23T23:13:48.177Z,16.06
2022-10-23T23:16:51.120Z,16.03
2022-10-23T23:19:53.848Z,15.99
2022-10-23T23:22:56.474Z,15.96
2022-10-23T23:25:59.178Z,15.93
2022-10-23T23:29:01.775Z,15.92
2022-10-23T23:32:06.216Z,15.90
2022-10-23T23:35:09.358Z,15.90
2022-10-23T23:38:12.932Z,15.89
2022-10-23T23:41:18.339Z,15.85
2022-10-23T23:44:21.002Z,15.83
2022-10-23T23:47:23.717Z,15.83
2022-10-23T23:50:27.972Z,15.78
2022-10-23T23:53:30.694Z,15.78
2022-10-23T23:56:33.343Z,15.78
2022-10-23T23:59:38.116Z,15.80
